Time;durP1;ratioP1;P1;durP2;ratioP2;P2;SDS_P1;SDS_P2;PMS_P1;PMS_P2;Temp;Humidity;BMP_temperature;BMP_pressure;BME280_temperature;BME280_humidity;BME280_pressure;Samples;Min_cycle;Max_cycle;Signal;HPM_P1;HPM_P2
2023/10/10 00:02:18;;;;;;;8.85;4.78;;;;;;;16.63;38.58;95199.84;5029752;28;20310;-73
2023/10/10 00:04:45;;;;;;;7.35;4.60;;;;;;;16.61;38.88;95215.94;5018631;28;20233;-73
2023/10/10 00:07:14;;;;;;;9.25;4.78;;;;;;;16.48;39.05;95213.94;5027878;28;20222;-72
2023/10/10 00:09:40;;;;;;;8.90;4.68;;;;;;;16.27;39.58;95204.03;5034362;28;20214;-72
2023/10/10 00:12:06;;;;;;;9.38;5.00;;;;;;;16.14;39.65;95205.69;5029675;28;20194;-72
2023/10/10 00:14:32;;;;;;;9.02;4.53;;;;;;;15.96;40.23;95193.59;5027401;28;20209;-73
2023/10/10 00:16:59;;;;;;;10.43;5.35;;;;;;;15.82;40.32;95189.91;5029695;28;20214;-73
2023/10/10 00:19:43;;;;;;;7.72;4.43;;;;;;;15.93;40.41;95201.06;5023562;28;20321;-73
2023/10/10 00:22:10;;;;;;;8.02;4.30;;;;;;;15.92;40.21;95197.59;5022644;28;20233;-72
2023/10/10 00:24:35;;;;;;;8.75;4.72;;;;;;;15.91;40.58;95197.78;5027152;28;20218;-72
2023/10/10 00:27:14;;;;;;;8.52;4.22;;;;;;;15.72;40.60;95192.00;5021413;28;20551;-71
2023/10/10 00:29:43;;;;;;;9.95;4.47;;;;;;;15.76;41.19;95187.13;5031897;28;20300;-72
2023/10/10 00:32:28;;;;;;;11.05;4.70;;;;;;;15.76;41.43;95184.50;5028236;28;20277;-72
2023/10/10 00:34:55;;;;;;;6.95;3.90;;;;;;;16.04;40.83;95192.69;5025429;28;20215;-72
2023/10/10 00:37:25;;;;;;;6.35;4.53;;;;;;;16.03;40.60;95186.53;5027532;28;20218;-72
2023/10/10 00:39:54;;;;;;;10.68;4.95;;;;;;;16.07;40.27;95189.66;5030268;28;20272;-73
2023/10/10 00:42:20;;;;;;;8.40;4.35;;;;;;;16.18;40.18;95191.06;5023853;28;20736;-73
2023/10/10 00:44:46;;;;;;;13.00;5.20;;;;;;;16.17;39.93;95184.94;5032212;28;20174;-73
2023/10/10 00:47:26;;;;;;;10.77;5.05;;;;;;;16.20;39.55;95194.31;5031310;28;20258;-74
2023/10/10 00:49:52;;;;;;;9.05;4.07;;;;;;;16.35;39.01;95181.06;5032737;28;20225;-73
2023/10/10 00:52:19;;;;;;;7.45;4.28;;;;;;;16.26;38.80;95178.50;5026401;28;20218;-73
2023/10/10 00:54:45;;;;;;;9.13;4.45;;;;;;;16.17;39.08;95176.97;5030151;28;20215;-73
2023/10/10 00:57:16;;;;;;;6.43;3.72;;;;;;;16.19;38.79;95187.38;5025103;28;20225;-73
2023/10/10 00:59:45;;;;;;;9.13;3.80;;;;;;;16.16;38.70;95185.91;5025087;28;20194;-73
2023/10/10 01:02:12;;;;;;;8.07;3.80;;;;;;;16.07;38.62;95189.66;5024174;28;20270;-72
2023/10/10 01:04:39;;;;;;;7.60;4.03;;;;;;;16.01;39.02;95183.28;5024623;28;20254;-72
2023/10/10 01:07:07;;;;;;;11.52;4.00;;;;;;;16.03;38.93;95181.22;5006258;28;20831;-71
2023/10/10 01:09:35;;;;;;;7.43;3.55;;;;;;;16.20;38.21;95179.25;5019982;28;20230;-72
2023/10/10 01:12:04;;;;;;;7.53;3.13;;;;;;;16.26;37.94;95185.66;5026236;28;20559;-73
2023/10/10 01:14:31;;;;;;;5.55;3.35;;;;;;;16.13;37.92;95183.63;5022589;28;20187;-72
2023/10/10 01:17:05;;;;;;;7.35;3.40;;;;;;;16.15;37.89;95181.63;5027662;28;20207;-71
2023/10/10 01:19:34;;;;;;;6.57;3.67;;;;;;;16.07;37.91;95189.66;5023557;28;20265;-72
2023/10/10 01:22:03;;;;;;;9.18;3.38;;;;;;;16.12;37.79;95174.03;5027991;28;20305;-71
2023/10/10 01:24:32;;;;;;;8.40;3.38;;;;;;;16.19;37.66;95169.63;5032629;28;20206;-72
2023/10/10 01:27:21;;;;;;;7.28;2.95;;;;;;;16.00;38.20;95171.00;5021711;28;20218;-71
2023/10/10 01:32:31;;;;;;;6.68;3.40;;;;;;;15.91;39.16;95192.50;5024864;28;20692;-72
2023/10/10 01:34:57;;;;;;;7.82;3.67;;;;;;;16.00;38.88;95194.03;5012486;28;20285;-72
2023/10/10 01:37:22;;;;;;;7.65;3.63;;;;;;;16.09;38.92;95198.25;5006012;28;20226;-72
2023/10/10 01:40:20;;;;;;;6.65;3.20;;;;;;;16.22;38.67;95198.44;5010063;28;20219;-73
2023/10/10 01:42:51;;;;;;;6.05;3.25;;;;;;;16.17;38.36;95205.31;5023698;28;20236;-73
2023/10/10 01:45:19;;;;;;;10.82;3.78;;;;;;;16.07;38.17;95190.50;5009040;28;20229;-73
2023/10/10 01:47:56;;;;;;;7.65;3.63;;;;;;;16.13;38.12;95199.56;4993262;28;20291;-72
2023/10/10 01:50:25;;;;;;;7.40;3.65;;;;;;;16.16;37.92;95203.66;4987182;28;20226;-72
2023/10/10 01:52:51;;;;;;;8.93;4.10;;;;;;;16.11;38.13;95193.59;4989560;28;20214;-72
2023/10/10 01:55:17;;;;;;;5.88;3.67;;;;;;;15.97;38.70;95212.97;4982296;28;20366;-73
2023/10/10 01:57:42;;;;;;;8.63;3.72;;;;;;;16.06;38.55;95209.22;4988483;28;20211;-73
2023/10/10 02:00:21;;;;;;;10.68;3.40;;;;;;;16.02;38.43;95194.69;4987032;28;20231;-73
2023/10/10 02:02:50;;;;;;;9.63;4.00;;;;;;;16.09;38.43;95203.56;4988093;28;20230;-73
2023/10/10 02:05:59;;;;;;;8.18;3.30;;;;;;;16.08;38.43;95201.91;4986142;28;20258;-73
2023/10/10 02:08:16;;;;;;;9.57;3.15;;;;;;;16.13;38.39;95204.84;5016019;28;20237;-73
2023/10/10 02:10:46;;;;;;;5.55;3.28;;;;;;;16.20;38.09;95203.13;5039927;28;20217;-72
2023/10/10 02:13:12;;;;;;;6.13;3.45;;;;;;;16.10;38.35;95210.53;5047386;28;20218;-73
2023/10/10 02:15:39;;;;;;;8.88;3.67;;;;;;;15.96;38.69;95219.25;5039412;28;20214;-73
2023/10/10 02:18:25;;;;;;;8.02;3.55;;;;;;;16.05;38.72;95219.03;5039880;28;20224;-71
2023/10/10 02:20:51;;;;;;;9.80;3.60;;;;;;;16.04;39.52;95208.59;5026871;28;20735;-71
2023/10/10 02:23:36;;;;;;;5.63;3.28;;;;;;;16.08;39.92;95204.56;5057257;28;20217;-72
2023/10/10 02:26:35;;;;;;;9.32;3.47;;;;;;;16.05;41.34;95207.59;5047028;28;20229;-71
2023/10/10 02:29:17;;;;;;;9.68;2.78;;;;;;;16.12;41.87;95211.19;5039543;28;20282;-71
2023/10/10 02:31:41;;;;;;;4.57;2.83;;;;;;;16.23;42.29;95196.66;5040421;28;20210;-73
2023/10/10 02:34:10;;;;;;;7.18;2.65;;;;;;;16.35;41.65;95189.03;5040733;28;20225;-70
2023/10/10 02:36:35;;;;;;;5.43;2.72;;;;;;;16.34;41.64;95188.22;5040319;28;20218;-70
2023/10/10 02:41:48;;;;;;;12.52;2.78;;;;;;;16.71;41.08;95192.59;5039233;28;20635;-71
2023/10/10 02:44:26;;;;;;;6.05;2.80;;;;;;;16.70;40.99;95188.28;5045316;28;20183;-72
2023/10/10 02:46:54;;;;;;;7.05;2.80;;;;;;;16.73;41.70;95181.75;5042164;28;20225;-72
2023/10/10 02:49:23;;;;;;;5.28;2.80;;;;;;;16.90;41.70;95180.59;5050051;28;20233;-72
2023/10/10 02:51:51;;;;;;;5.55;2.50;;;;;;;16.84;41.92;95185.81;5038263;28;20218;-72
2023/10/10 02:54:27;;;;;;;5.65;2.92;;;;;;;16.86;42.43;95175.81;5044650;28;20224;-71
2023/10/10 03:02:59;;;;;;;6.95;2.40;;;;;;;16.83;43.35;95161.09;4983219;28;20230;-71
2023/10/10 03:05:46;;;;;;;5.97;2.45;;;;;;;16.73;43.80;95164.03;4966925;28;20307;-71
2023/10/10 03:08:14;;;;;;;5.68;2.45;;;;;;;16.87;43.10;95174.84;4974116;28;20363;-72
2023/10/10 03:10:45;;;;;;;6.05;2.60;;;;;;;16.91;43.24;95176.91;4976049;28;20232;-72
2023/10/10 03:13:57;;;;;;;6.38;2.80;;;;;;;16.96;43.29;95189.63;4978038;28;20298;-72
2023/10/10 03:16:29;;;;;;;4.43;2.35;;;;;;;17.04;43.57;95189.53;4981948;28;20355;-72
2023/10/10 03:29:11;;;;;;;8.50;2.50;;;;;;;17.30;42.90;95199.63;4990887;28;20206;-71
2023/10/10 03:31:47;;;;;;;6.70;2.78;;;;;;;17.25;43.38;95199.38;4977007;28;20286;-71
2023/10/10 03:34:31;;;;;;;3.97;2.38;;;;;;;17.29;43.36;95210.44;4975438;28;20223;-71
2023/10/10 03:37:21;;;;;;;6.30;2.35;;;;;;;17.39;43.23;95205.63;4974951;28;20234;-71
2023/10/10 03:39:53;;;;;;;3.53;2.53;;;;;;;17.39;43.33;95210.94;5018920;28;20300;-72
2023/10/10 05:23:53;;;;;;;5.15;3.40;;;;;;;17.28;47.20;95272.56;4933801;29;20344;-65
2023/10/10 05:26:21;;;;;;;7.30;3.58;;;;;;;17.23;47.42;95273.13;4935349;29;20288;-65
2023/10/10 05:28:47;;;;;;;6.03;3.30;;;;;;;17.16;47.41;95267.75;4932496;28;20606;-65
2023/10/10 05:31:17;;;;;;;8.13;3.42;;;;;;;17.20;47.49;95284.94;4920487;29;20260;-65
2023/10/10 05:33:43;;;;;;;11.57;3.25;;;;;;;17.06;47.89;95269.88;4920593;29;20312;-64
2023/10/10 05:36:09;;;;;;;11.13;3.75;;;;;;;17.12;47.84;95292.22;4938005;28;20306;-65
2023/10/10 05:38:36;;;;;;;8.88;3.50;;;;;;;17.15;47.96;95290.00;4973925;28;20691;-65
2023/10/10 05:41:03;;;;;;;9.93;3.15;;;;;;;17.12;47.60;95301.00;4960682;28;20664;-64
2023/10/10 05:43:33;;;;;;;7.05;3.60;;;;;;;16.98;48.24;95281.41;4990303;28;20266;-64
2023/10/10 05:46:00;;;;;;;6.18;3.53;;;;;;;17.05;47.88;95294.78;4974382;28;20258;-65
2023/10/10 05:48:26;;;;;;;7.53;3.40;;;;;;;17.13;47.66;95284.06;4989648;28;20247;-67
2023/10/10 05:50:53;;;;;;;8.32;3.15;;;;;;;17.20;47.68;95287.59;4978066;28;20235;-67
2023/10/10 05:53:20;;;;;;;6.25;3.35;;;;;;;17.19;47.40;95269.22;5021135;28;20197;-67
2023/10/10 05:55:53;;;;;;;6.40;3.28;;;;;;;17.26;47.35;95280.72;5043022;28;20221;-71
2023/10/10 05:58:19;;;;;;;8.85;3.78;;;;;;;17.37;47.11;95280.25;5047712;28;20308;-72
2023/10/10 06:00:48;;;;;;;7.18;3.67;;;;;;;17.35;47.01;95274.31;5042667;28;20329;-72
2023/10/10 06:03:16;;;;;;;5.82;3.47;;;;;;;17.47;47.00;95287.91;5041770;28;20234;-76
2023/10/10 06:05:45;;;;;;;8.88;3.22;;;;;;;17.59;46.68;95277.63;5057531;28;20591;-72
2023/10/10 06:08:11;;;;;;;4.65;3.10;;;;;;;17.66;46.61;95277.69;5044289;28;20195;-72
2023/10/10 06:10:38;;;;;;;5.75;3.15;;;;;;;17.54;46.79;95283.50;5041947;28;20213;-75
2023/10/10 06:13:04;;;;;;;8.18;3.58;;;;;;;17.61;46.94;95279.09;5040806;28;20301;-74
2023/10/10 06:15:33;;;;;;;6.70;3.30;;;;;;;17.76;46.45;95281.69;5042588;28;20267;-70
2023/10/10 06:18:08;;;;;;;5.82;3.33;;;;;;;17.68;46.61;95283.66;5046315;28;20217;-75
2023/10/10 06:20:40;;;;;;;8.25;3.40;;;;;;;17.74;46.72;95290.84;5044981;28;20181;-74
2023/10/10 06:23:07;;;;;;;9.63;4.10;;;;;;;17.77;46.40;95303.78;5046890;28;20223;-79
2023/10/10 06:25:32;;;;;;;6.75;3.50;;;;;;;17.65;46.79;95284.84;5042355;28;20229;-73
2023/10/10 06:28:00;;;;;;;7.93;3.53;;;;;;;17.66;46.91;95285.66;5040649;28;20226;-74
2023/10/10 06:30:26;;;;;;;5.82;3.70;;;;;;;17.89;46.39;95285.53;5041681;28;20934;-73
2023/10/10 06:32:58;;;;;;;6.10;3.28;;;;;;;17.95;46.02;95280.25;5048878;28;20236;-78
2023/10/10 06:37:54;;;;;;;6.55;3.53;;;;;;;18.01;46.00;95292.78;5043328;28;20213;-74
2023/10/10 06:40:28;;;;;;;8.98;3.50;;;;;;;18.01;46.11;95295.44;5042466;28;20257;-76
2023/10/10 06:42:57;;;;;;;6.95;3.40;;;;;;;18.13;45.85;95306.41;5040042;28;20229;-72
2023/10/10 06:45:34;;;;;;;6.38;3.65;;;;;;;18.15;45.59;95303.53;5043998;28;20299;-71
2023/10/10 06:48:01;;;;;;;5.40;3.40;;;;;;;18.18;45.33;95316.50;5046892;28;20228;-76
2023/10/10 06:50:31;;;;;;;8.90;3.65;;;;;;;18.33;45.20;95306.56;5043935;28;20274;-73
2023/10/10 06:52:58;;;;;;;7.85;3.83;;;;;;;18.42;45.05;95309.94;5040833;28;20257;-75
2023/10/10 06:55:24;;;;;;;8.52;3.83;;;;;;;18.25;45.38;95312.03;5038864;28;20228;-74
2023/10/10 06:57:57;;;;;;;9.48;3.65;;;;;;;18.20;45.41;95319.75;5040697;28;20217;-72
2023/10/10 07:00:32;;;;;;;7.95;4.30;;;;;;;18.20;45.96;95325.94;5039479;28;20217;-74
2023/10/10 07:02:58;;;;;;;10.18;4.72;;;;;;;18.18;45.85;95313.84;5049220;28;20224;-71
2023/10/10 07:05:27;;;;;;;5.60;3.25;;;;;;;18.02;46.30;95329.03;5046890;28;20182;-77
2023/10/10 07:08:01;;;;;;;6.20;3.65;;;;;;;18.10;46.31;95309.47;5037472;28;20264;-73
2023/10/10 07:10:33;;;;;;;9.65;3.60;;;;;;;18.07;46.49;95312.50;5040001;28;20304;-74
2023/10/10 07:13:11;;;;;;;7.50;3.15;;;;;;;18.20;46.26;95317.09;5042959;28;20303;-72
2023/10/10 07:15:42;;;;;;;8.80;3.70;;;;;;;18.36;45.66;95321.34;5042907;28;20218;-76
2023/10/10 07:18:09;;;;;;;5.13;3.83;;;;;;;18.14;46.68;95320.53;5043754;28;20225;-75
2023/10/10 07:23:22;;;;;;;5.80;3.28;;;;;;;18.39;46.14;95327.13;5036666;28;20185;-74
2023/10/10 07:26:00;;;;;;;7.78;3.47;;;;;;;18.23;46.43;95320.22;5040308;28;20221;-74
2023/10/10 07:28:29;;;;;;;8.23;3.53;;;;;;;18.42;46.09;95318.75;5047744;28;20217;-73
2023/10/10 07:30:55;;;;;;;5.85;3.42;;;;;;;18.58;45.80;95317.63;5038923;28;20332;-69
2023/10/10 07:33:29;;;;;;;7.93;3.65;;;;;;;18.38;46.13;95316.66;5041713;28;20301;-70
2023/10/10 07:35:55;;;;;;;5.15;3.10;;;;;;;18.44;45.89;95324.69;5045171;28;20227;-74
2023/10/10 07:38:27;;;;;;;5.18;3.75;;;;;;;18.45;45.94;95336.16;5043330;28;20185;-72
2023/10/10 07:40:53;;;;;;;10.45;4.10;;;;;;;18.38;46.16;95329.97;5040415;28;20301;-72
2023/10/10 07:43:20;;;;;;;8.23;3.70;;;;;;;18.33;46.43;95341.16;5044012;28;20374;-72
2023/10/10 07:45:47;;;;;;;9.05;3.88;;;;;;;18.60;45.99;95344.88;5040073;28;20224;-72
2023/10/10 07:50:47;;;;;;;8.38;4.07;;;;;;;18.82;45.71;95345.69;5045248;28;20284;-72
2023/10/10 07:53:14;;;;;;;11.77;4.15;;;;;;;19.14;44.78;95338.09;5038426;28;20177;-72
2023/10/10 07:55:53;;;;;;;6.70;3.88;;;;;;;19.24;44.62;95337.72;5049973;28;20288;-72
2023/10/10 07:58:23;;;;;;;8.20;3.85;;;;;;;19.37;43.82;95343.94;5042216;28;20240;-72
2023/10/10 08:00:53;;;;;;;11.57;4.05;;;;;;;19.11;44.42;95328.66;5044484;28;20218;-70
2023/10/10 08:03:19;;;;;;;7.63;3.75;;;;;;;19.13;44.66;95336.44;5040891;28;20710;-70
2023/10/10 08:05:48;;;;;;;8.25;4.65;;;;;;;19.29;44.37;95335.28;5044464;28;20197;-71
2023/10/10 08:08:20;;;;;;;7.43;3.72;;;;;;;19.38;44.29;95364.25;5045685;28;20182;-71
2023/10/10 08:10:51;;;;;;;11.48;4.82;;;;;;;19.27;44.32;95340.84;5046364;28;20228;-72
2023/10/10 08:13:18;;;;;;;12.80;4.63;;;;;;;19.23;44.75;95349.41;5036146;28;20226;-76
2023/10/10 08:15:56;;;;;;;10.13;4.10;;;;;;;19.04;44.96;95348.28;5029410;28;20297;-75
2023/10/10 08:21:16;;;;;;;5.82;4.32;;;;;;;19.10;44.82;95361.63;5017276;28;20253;-77
2023/10/10 08:23:43;;;;;;;10.25;4.78;;;;;;;19.08;44.89;95357.53;5011053;28;20197;-73
2023/10/10 08:26:17;;;;;;;8.00;4.85;;;;;;;18.95;45.49;95361.78;5026266;28;20293;-84
2023/10/10 08:28:47;;;;;;;10.23;4.75;;;;;;;18.68;46.12;95352.75;5031786;28;20229;-78
2023/10/10 08:31:16;;;;;;;9.25;4.88;;;;;;;18.62;46.57;95356.16;5021765;28;20269;-76
2023/10/10 08:33:46;;;;;;;9.98;4.68;;;;;;;18.69;46.26;95350.91;5027182;28;20231;-79
2023/10/10 08:36:24;;;;;;;12.43;5.10;;;;;;;18.65;46.45;95354.94;5024686;28;20249;-77
2023/10/10 08:38:56;;;;;;;13.68;4.53;;;;;;;18.82;46.35;95355.50;5031135;28;20252;-76
2023/10/10 08:41:26;;;;;;;11.70;5.75;;;;;;;18.79;46.09;95359.41;5027087;28;20262;-77
2023/10/10 08:43:53;;;;;;;11.38;4.50;;;;;;;18.91;45.52;95354.34;5027138;28;20229;-75
2023/10/10 08:46:27;;;;;;;9.90;4.97;;;;;;;18.81;45.85;95357.34;5025942;28;20214;-76
2023/10/10 08:48:55;;;;;;;9.07;5.20;;;;;;;18.68;46.34;95363.41;5022445;28;20230;-73
2023/10/10 08:51:20;;;;;;;12.75;4.25;;;;;;;18.60;46.42;95368.84;5020146;28;20217;-71
2023/10/10 08:53:50;;;;;;;8.50;4.53;;;;;;;18.49;46.70;95361.38;5021980;28;20273;-75
2023/10/10 08:56:16;;;;;;;10.90;4.95;;;;;;;18.59;46.59;95359.22;5023343;28;20174;-74
2023/10/10 08:58:42;;;;;;;12.63;4.68;;;;;;;18.66;46.62;95359.28;5022964;28;20245;-79
2023/10/10 09:01:08;;;;;;;10.43;4.60;;;;;;;18.66;46.61;95362.75;5029679;28;20894;-73
2023/10/10 09:03:34;;;;;;;9.63;4.72;;;;;;;18.93;46.01;95358.47;5022072;28;20653;-73
2023/10/10 09:06:20;;;;;;;8.50;4.10;;;;;;;18.89;46.13;95383.03;5022680;28;20283;-73
2023/10/10 09:08:49;;;;;;;8.20;4.40;;;;;;;18.64;46.79;95379.94;5022643;28;20221;-72
2023/10/10 09:11:16;;;;;;;10.43;4.63;;;;;;;18.52;46.97;95372.50;5031006;28;20186;-74
2023/10/10 09:13:52;;;;;;;6.43;3.90;;;;;;;18.60;46.70;95381.34;5025787;28;20401;-76
2023/10/10 09:16:19;;;;;;;6.45;4.13;;;;;;;18.30;47.76;95369.00;5022444;28;20222;-77
2023/10/10 09:19:08;;;;;;;6.78;4.00;;;;;;;18.36;47.35;95366.59;5025463;28;20719;-75
2023/10/10 09:21:50;;;;;;;9.30;3.67;;;;;;;18.30;47.48;95373.50;5022596;28;20297;-75
2023/10/10 09:24:31;;;;;;;6.88;4.43;;;;;;;18.27;47.93;95357.91;5024897;28;20221;-75
2023/10/10 09:26:59;;;;;;;7.88;4.10;;;;;;;18.49;47.30;95367.53;5028026;28;20343;-74
2023/10/10 09:29:42;;;;;;;7.03;3.67;;;;;;;18.81;46.58;95359.19;5023438;28;20221;-75
2023/10/10 09:32:13;;;;;;;7.50;3.60;;;;;;;19.02;45.75;95355.66;5021208;28;20312;-76
2023/10/10 09:34:41;;;;;;;9.95;4.63;;;;;;;19.27;45.51;95359.50;5026513;28;20276;-75
2023/10/10 09:37:13;;;;;;;8.85;4.32;;;;;;;19.49;45.04;95351.38;5022203;28;20249;-75
2023/10/10 09:39:41;;;;;;;7.30;3.80;;;;;;;19.60;44.82;95358.81;5018298;28;20215;-74
2023/10/10 09:42:21;;;;;;;7.53;3.95;;;;;;;19.76;44.19;95352.34;5024124;28;20214;-74
2023/10/10 09:47:52;;;;;;;6.50;3.50;;;;;;;20.08;43.62;95347.28;5021098;28;20260;-75
2023/10/10 09:52:54;;;;;;;5.38;2.90;;;;;;;20.18;43.23;95351.22;5024732;28;20224;-72
2023/10/10 10:09:36;;;;;;;6.15;3.55;;;;;;;21.23;40.35;95343.34;5005922;28;20210;-72
2023/10/10 10:12:24;;;;;;;5.70;3.20;;;;;;;20.91;40.98;95334.38;4989189;28;20242;-72
2023/10/10 10:15:08;;;;;;;9.80;3.58;;;;;;;20.96;41.17;95337.25;4987609;28;20222;-73
2023/10/10 10:17:48;;;;;;;5.65;3.00;;;;;;;20.87;41.18;95331.28;5000091;28;20251;-73
2023/10/10 10:21:04;;;;;;;7.15;3.17;;;;;;;20.79;41.71;95336.84;4988591;28;20262;-73
2023/10/10 10:23:33;;;;;;;8.23;3.30;;;;;;;21.18;40.71;95329.78;5007253;28;20309;-72
2023/10/10 10:26:12;;;;;;;4.18;2.70;;;;;;;20.95;40.94;95332.91;4993037;28;20190;-73
2023/10/10 10:28:42;;;;;;;6.15;2.60;;;;;;;20.84;41.10;95326.34;4992535;28;20617;-72
2023/10/10 10:31:28;;;;;;;4.82;2.78;;;;;;;20.81;41.59;95323.28;4993291;28;20302;-75
2023/10/10 10:34:24;;;;;;;4.10;2.85;;;;;;;20.75;41.67;95329.47;4993085;28;20688;-75
2023/10/10 10:37:07;;;;;;;5.72;2.95;;;;;;;20.61;41.67;95310.78;5001394;28;20273;-76
2023/10/10 10:39:37;;;;;;;6.95;3.22;;;;;;;20.43;42.17;95321.22;4992096;28;20269;-79
2023/10/10 10:42:11;;;;;;;8.07;3.22;;;;;;;20.39;42.34;95311.97;5027462;28;20301;-78
2023/10/10 10:44:45;;;;;;;4.60;3.00;;;;;;;20.46;42.29;95312.81;5029706;28;20170;-78
2023/10/10 10:47:35;;;;;;;4.28;2.53;;;;;;;20.31;42.66;95317.53;5014491;28;20198;-75
2023/10/10 10:50:18;;;;;;;4.60;2.72;;;;;;;20.03;42.67;95314.00;5021861;28;20222;-75
2023/10/10 10:52:57;;;;;;;4.35;2.75;;;;;;;19.90;43.10;95318.50;5023107;28;20231;-72
2023/10/10 10:55:27;;;;;;;6.50;3.33;;;;;;;19.82;43.32;95314.97;5017707;28;20230;-73
2023/10/10 10:58:06;;;;;;;5.95;3.17;;;;;;;19.89;43.24;95314.16;5025951;28;20222;-73
2023/10/10 11:00:57;;;;;;;6.97;2.50;;;;;;;19.89;43.07;95309.69;5026765;28;20220;-77
2023/10/10 11:03:34;;;;;;;3.80;2.30;;;;;;;19.76;43.42;95313.13;5022267;28;20641;-72
2023/10/10 11:06:01;;;;;;;6.78;2.55;;;;;;;19.83;43.32;95305.97;5022545;28;20221;-74
2023/10/10 11:14:00;;;;;;;3.63;2.60;;;;;;;19.89;43.08;95311.50;5021351;28;20230;-71
2023/10/10 11:16:39;;;;;;;5.47;3.15;;;;;;;19.71;43.47;95304.91;5023219;28;20241;-73
2023/10/10 11:19:19;;;;;;;5.85;2.95;;;;;;;19.65;43.51;95312.88;5017682;28;20229;-77
2023/10/10 11:21:53;;;;;;;4.45;2.78;;;;;;;19.70;43.03;95305.94;5032222;28;20230;-76
2023/10/10 11:24:29;;;;;;;5.53;3.05;;;;;;;19.67;43.03;95308.16;5026188;28;20598;-81
2023/10/10 11:27:07;;;;;;;7.60;3.55;;;;;;;19.68;43.17;95307.16;5023084;28;20214;-80
2023/10/10 11:29:44;;;;;;;4.35;2.65;;;;;;;19.60;43.33;95300.94;5022287;28;20667;-79
2023/10/10 11:32:12;;;;;;;6.10;2.78;;;;;;;19.55;43.29;95308.72;5026409;28;20236;-75
2023/10/10 11:34:44;;;;;;;5.22;2.75;;;;;;;19.53;43.38;95301.94;5026893;28;20214;-76
2023/10/10 11:37:22;;;;;;;4.90;3.00;;;;;;;19.65;43.30;95303.03;5022830;28;20218;-81
2023/10/10 11:39:57;;;;;;;8.80;2.65;;;;;;;19.76;42.99;95302.47;5008226;28;20341;-82
2023/10/10 11:42:33;;;;;;;7.50;3.70;;;;;;;19.82;43.04;95306.16;5026266;28;20936;-77
2023/10/10 11:45:17;;;;;;;7.70;3.42;;;;;;;19.82;42.86;95306.97;5029328;28;20221;-79
2023/10/10 11:47:44;;;;;;;5.20;3.40;;;;;;;19.70;43.00;95297.94;5023770;28;20182;-75
2023/10/10 11:50:15;;;;;;;5.40;3.50;;;;;;;19.66;43.01;95306.50;5022957;28;20229;-72
2023/10/10 11:53:01;;;;;;;7.13;2.92;;;;;;;19.68;42.97;95305.31;5026607;28;20244;-80
2023/10/10 11:55:27;;;;;;;6.55;3.28;;;;;;;19.74;42.83;95301.84;5024613;28;20211;-72
2023/10/10 11:57:58;;;;;;;5.05;3.08;;;;;;;19.72;43.19;95297.72;5025028;28;20222;-76
2023/10/10 12:00:46;;;;;;;6.97;3.08;;;;;;;19.65;42.86;95297.69;5029093;28;20214;-75
2023/10/10 12:03:11;;;;;;;5.53;3.35;;;;;;;19.57;43.25;95305.88;5023308;28;20298;-76
2023/10/10 12:05:47;;;;;;;7.03;3.28;;;;;;;19.63;43.27;95302.41;5026388;28;20269;-73
2023/10/10 12:08:15;;;;;;;7.90;3.63;;;;;;;19.62;43.51;95300.75;5025863;28;20189;-69
2023/10/10 12:10:53;;;;;;;9.23;3.58;;;;;;;19.71;43.09;95296.91;5023131;28;20226;-68
2023/10/10 12:16:07;;;;;;;14.70;10.10;;;;;;;19.73;43.39;95304.72;5023226;28;20222;-70
2023/10/10 12:18:34;;;;;;;10.55;4.57;;;;;;;19.76;43.35;95302.47;5023705;28;20248;-68
2023/10/10 12:21:01;;;;;;;7.47;3.65;;;;;;;19.78;43.07;95299.56;5024977;28;20300;-69
2023/10/10 12:23:30;;;;;;;11.68;4.90;;;;;;;19.78;42.99;95294.22;5025971;28;20214;-70
2023/10/10 12:25:56;;;;;;;7.05;3.70;;;;;;;19.80;42.94;95303.69;5027184;28;20971;-70
2023/10/10 12:28:22;;;;;;;5.82;3.70;;;;;;;19.81;42.78;95297.34;5026489;28;20272;-69
2023/10/10 12:30:48;;;;;;;7.60;4.10;;;;;;;19.88;42.89;95286.66;5026477;28;20219;-68
2023/10/10 12:33:16;;;;;;;9.68;4.85;;;;;;;19.90;42.50;95291.81;5024493;28;20230;-71
2023/10/10 12:35:46;;;;;;;10.07;4.18;;;;;;;19.88;42.34;95289.34;5027289;28;20237;-70
2023/10/10 12:38:20;;;;;;;4.72;3.17;;;;;;;19.87;42.47;95294.88;5025696;28;20277;-70
2023/10/10 12:40:49;;;;;;;9.60;3.65;;;;;;;19.94;42.46;95290.38;5024214;28;20241;-71
2023/10/10 12:43:24;;;;;;;8.38;3.50;;;;;;;19.88;42.80;95293.84;5024435;28;20312;-70
2023/10/10 12:45:54;;;;;;;10.10;3.63;;;;;;;19.95;42.49;95297.38;5025101;28;20722;-69
2023/10/10 12:48:22;;;;;;;10.45;3.40;;;;;;;19.71;42.35;95294.22;5024664;28;20217;-70
2023/10/10 12:50:50;;;;;;;6.13;2.95;;;;;;;19.68;41.99;95299.16;5023408;28;20241;-70
2023/10/10 12:53:18;;;;;;;3.83;3.00;;;;;;;19.57;42.35;95301.34;5029423;28;20193;-69
2023/10/10 12:55:51;;;;;;;4.82;2.78;;;;;;;19.58;42.07;95304.84;5019761;28;20258;-77
2023/10/10 12:58:20;;;;;;;5.03;2.88;;;;;;;19.64;41.81;95296.03;5023094;28;20223;-79
2023/10/10 13:00:52;;;;;;;5.75;2.83;;;;;;;19.59;42.04;95299.31;5021698;28;20565;-72
2023/10/10 13:03:28;;;;;;;4.63;3.40;;;;;;;19.63;42.04;95296.25;5033021;28;20227;-72
2023/10/10 13:06:04;;;;;;;5.65;3.05;;;;;;;19.55;42.02;95295.38;5028403;28;20682;-77
2023/10/10 13:08:39;;;;;;;8.88;3.53;;;;;;;19.64;41.95;95292.53;5027495;28;20194;-72
2023/10/10 13:11:32;;;;;;;6.95;3.20;;;;;;;19.71;41.92;95296.09;5020361;28;20224;-72
2023/10/10 13:14:08;;;;;;;4.60;2.65;;;;;;;19.67;42.28;95292.97;5020182;28;20226;-72
2023/10/10 13:19:09;;;;;;;10.30;3.65;;;;;;;19.64;42.23;95289.88;5022489;28;20703;-74
2023/10/10 13:21:36;;;;;;;7.25;2.78;;;;;;;19.69;42.09;95293.59;5023288;28;20217;-74
2023/10/10 13:24:03;;;;;;;7.68;3.10;;;;;;;19.67;42.36;95298.31;5024447;28;20218;-74
2023/10/10 13:26:28;;;;;;;8.65;3.35;;;;;;;19.70;42.21;95299.75;5021130;28;20612;-74
2023/10/10 13:28:54;;;;;;;11.20;4.07;;;;;;;19.61;42.62;95288.44;5024251;28;20230;-83
2023/10/10 13:31:24;;;;;;;6.43;3.22;;;;;;;19.70;42.64;95295.28;5021757;28;20886;-69
2023/10/10 13:33:50;;;;;;;9.38;3.42;;;;;;;19.68;42.46;95285.81;5023114;28;20226;-65
2023/10/10 13:36:16;;;;;;;7.60;3.95;;;;;;;19.73;42.73;95300.19;5024202;28;20233;-65
2023/10/10 13:38:47;;;;;;;7.68;2.95;;;;;;;19.75;42.61;95295.50;5019769;28;20221;-68
2023/10/10 13:41:18;;;;;;;9.75;3.60;;;;;;;19.86;42.40;95288.75;5007076;28;20198;-72
2023/10/10 13:43:49;;;;;;;9.10;3.63;;;;;;;19.86;42.30;95293.22;5027269;28;20223;-72
2023/10/10 13:46:16;;;;;;;10.23;4.40;;;;;;;19.86;42.21;95294.06;5026470;28;20226;-72
2023/10/10 13:48:42;;;;;;;6.57;3.80;;;;;;;19.90;42.18;95289.97;5019986;28;20215;-72
2023/10/10 13:51:08;;;;;;;9.50;3.90;;;;;;;19.75;42.35;95292.81;5021088;28;20232;-72
2023/10/10 13:53:40;;;;;;;6.65;3.47;;;;;;;19.68;42.83;95297.31;5025083;28;20245;-72
2023/10/10 13:56:06;;;;;;;8.20;3.53;;;;;;;19.51;43.60;95296.84;5021419;28;20182;-72
2023/10/10 13:58:32;;;;;;;8.80;3.65;;;;;;;19.56;43.42;95301.53;5029611;28;20252;-72
2023/10/10 14:01:36;;;;;;;12.00;3.33;;;;;;;19.48;43.40;95299.06;5018931;28;20270;-72
2023/10/10 14:03:56;;;;;;;9.95;3.28;;;;;;;19.56;43.32;95293.53;5022536;28;20253;-72
2023/10/10 14:06:27;;;;;;;7.18;3.58;;;;;;;19.47;43.54;95295.56;5021886;28;20764;-74
2023/10/10 14:08:57;;;;;;;4.95;3.13;;;;;;;19.39;43.50;95299.22;5020456;28;20227;-85
2023/10/10 14:11:23;;;;;;;8.75;3.30;;;;;;;19.33;43.83;95300.03;5025977;28;20222;-86
2023/10/10 14:13:50;;;;;;;6.13;3.30;;;;;;;19.39;43.69;95301.09;5028824;28;20222;-86
2023/10/10 14:16:17;;;;;;;7.70;3.28;;;;;;;19.27;43.76;95305.31;5029822;28;20241;-74
2023/10/10 14:18:42;;;;;;;6.15;3.22;;;;;;;19.18;44.03;95307.34;5024799;28;20245;-75
2023/10/10 14:21:10;;;;;;;10.63;3.35;;;;;;;19.34;43.47;95312.34;5022410;28;20238;-75
2023/10/10 14:23:40;;;;;;;5.43;2.97;;;;;;;19.42;43.23;95306.00;5028645;28;20190;-73
2023/10/10 14:26:12;;;;;;;7.47;3.72;;;;;;;19.45;43.36;95308.28;5027647;28;20186;-74
2023/10/10 14:28:48;;;;;;;5.25;2.88;;;;;;;19.50;42.90;95305.84;5016947;28;20277;-72
2023/10/10 14:31:14;;;;;;;6.95;3.00;;;;;;;19.53;43.18;95316.09;5019756;28;20221;-71
2023/10/10 14:33:40;;;;;;;7.35;3.42;;;;;;;19.39;43.30;95317.09;5020048;28;20225;-73
2023/10/10 14:36:13;;;;;;;5.03;2.90;;;;;;;19.44;43.40;95317.31;5019112;28;20240;-73
2023/10/10 14:38:46;;;;;;;7.05;2.90;;;;;;;19.36;43.68;95317.47;5021782;28;20185;-72